createdAt,value
2022-08-26T00:01:30.730Z,24.80
2022-08-26T00:03:58.606Z,24.77
2022-08-26T00:06:26.054Z,24.75
2022-08-26T00:08:53.275Z,24.72
2022-08-26T00:11:26.738Z,24.58
2022-08-26T00:13:54.976Z,24.42
2022-08-26T00:16:23.481Z,24.42
2022-08-26T00:18:50.227Z,24.45
2022-08-26T00:21:17.466Z,24.43
2022-08-26T00:23:44.362Z,24.33
2022-08-26T00:26:11.236Z,24.34
2022-08-26T00:28:38.101Z,24.26
2022-08-26T00:31:07.096Z,24.26
2022-08-26T00:33:34.076Z,24.22
2022-08-26T00:36:01.635Z,24.32
2022-08-26T00:38:29.222Z,24.24
2022-08-26T00:40:57.380Z,24.20
2022-08-26T00:43:26.062Z,24.24
2022-08-26T00:46:00.840Z,24.17
2022-08-26T00:48:31.958Z,24.20
2022-08-26T00:51:04.476Z,24.20
2022-08-26T00:53:36.774Z,24.20
2022-08-26T00:56:09.341Z,24.06
2022-08-26T00:58:43.025Z,24.11
2022-08-26T01:01:11.571Z,23.92
2022-08-26T01:03:39.138Z,23.98
2022-08-26T01:06:11.459Z,23.83
2022-08-26T01:08:40.477Z,23.96
2022-08-26T01:11:08.782Z,24.05
2022-08-26T01:13:37.277Z,23.90
2022-08-26T01:16:06.282Z,23.79
2022-08-26T01:18:33.417Z,23.84
2022-08-26T01:21:25.073Z,23.73
2022-08-26T01:23:57.762Z,23.68
2022-08-26T01:26:29.643Z,23.72
2022-08-26T01:28:58.717Z,23.91
2022-08-26T01:31:29.976Z,23.89
2022-08-26T01:34:06.614Z,23.90
2022-08-26T01:36:37.796Z,23.66
2022-08-26T01:39:07.343Z,23.61
2022-08-26T01:41:36.441Z,23.68
2022-08-26T01:44:06.528Z,23.72
2022-08-26T01:46:37.026Z,23.67
2022-08-26T01:49:06.720Z,23.62
2022-08-26T01:51:37.602Z,23.41
2022-08-26T01:54:07.323Z,23.42
2022-08-26T01:56:39.278Z,23.52
2022-08-26T01:59:10.891Z,23.56
2022-08-26T02:01:39.204Z,23.39
2022-08-26T02:04:30.792Z,23.54
2022-08-26T02:06:58.125Z,23.40
2022-08-26T02:09:26.414Z,23.25
2022-08-26T02:11:54.005Z,23.21
2022-08-26T02:14:26.908Z,23.29
2022-08-26T02:16:56.011Z,23.30
2022-08-26T02:19:30.568Z,23.16
2022-08-26T02:22:01.319Z,23.02
2022-08-26T02:24:46.067Z,23.02
2022-08-26T02:27:14.776Z,23.06
2022-08-26T02:29:44.766Z,23.00
2022-08-26T02:32:11.495Z,22.77
2022-08-26T02:34:38.023Z,22.77
2022-08-26T02:37:10.025Z,22.74
2022-08-26T02:39:39.082Z,22.55
2022-08-26T02:42:06.158Z,22.69
2022-08-26T02:44:33.553Z,22.67
2022-08-26T02:47:00.322Z,22.53
2022-08-26T02:49:27.873Z,22.54
2022-08-26T02:51:54.580Z,22.53
2022-08-26T02:54:21.605Z,22.42
2022-08-26T02:56:48.873Z,22.50
2022-08-26T02:59:15.496Z,22.58
2022-08-26T03:01:42.786Z,22.45
2022-08-26T03:04:12.162Z,22.41
2022-08-26T03:06:38.983Z,22.25
2022-08-26T03:09:07.827Z,22.39
2022-08-26T03:11:36.659Z,22.25
2022-08-26T03:14:04.344Z,22.29
2022-08-26T03:16:35.920Z,22.23
2022-08-26T03:19:05.402Z,22.30
2022-08-26T03:21:33.012Z,22.31
2022-08-26T03:24:00.290Z,22.19
2022-08-26T03:26:27.927Z,22.22
2022-08-26T03:29:14.178Z,22.28
2022-08-26T03:31:41.239Z,22.35
2022-08-26T03:34:09.595Z,22.38
2022-08-26T03:36:38.699Z,22.38
2022-08-26T03:39:06.301Z,22.30
2022-08-26T03:41:35.822Z,22.34
2022-08-26T03:44:04.270Z,22.40
2022-08-26T03:46:32.280Z,22.42
2022-08-26T03:49:00.396Z,22.33
2022-08-26T03:51:28.845Z,22.33
2022-08-26T03:53:55.905Z,22.42
2022-08-26T03:56:23.867Z,22.46
2022-08-26T03:58:51.007Z,22.32
2022-08-26T04:01:17.712Z,22.40
2022-08-26T04:04:00.069Z,22.40
2022-08-26T04:06:31.311Z,22.50
2022-08-26T04:09:00.757Z,22.54
2022-08-26T04:11:30.397Z,22.44
2022-08-26T04:14:01.852Z,22.39
2022-08-26T04:16:29.486Z,22.32
2022-08-26T04:18:57.424Z,22.45
2022-08-26T04:21:25.443Z,22.48
2022-08-26T04:23:54.237Z,22.51
2022-08-26T04:26:23.361Z,22.56
2022-08-26T04:28:52.254Z,22.55
2022-08-26T04:31:19.689Z,22.54
2022-08-26T04:33:49.881Z,22.62
2022-08-26T04:36:17.813Z,22.51
2022-08-26T04:38:47.413Z,22.52
2022-08-26T04:41:15.285Z,22.67
2022-08-26T04:43:45.544Z,22.60
2022-08-26T04:46:13.878Z,22.67
2022-08-26T04:48:42.020Z,22.70
2022-08-26T04:51:09.921Z,22.74
2022-08-26T04:53:37.093Z,22.86
2022-08-26T04:56:04.680Z,22.78
2022-08-26T04:58:32.011Z,22.78
2022-08-26T05:00:58.635Z,22.74
2022-08-26T05:03:30.281Z,22.72
2022-08-26T05:05:58.372Z,22.79
2022-08-26T05:08:25.339Z,22.73
2022-08-26T05:10:55.886Z,22.55
2022-08-26T05:13:25.293Z,22.49
2022-08-26T05:15:52.480Z,22.65
2022-08-26T05:18:23.114Z,22.71
2022-08-26T05:20:53.995Z,22.78
2022-08-26T05:23:22.872Z,22.67
2022-08-26T05:26:01.785Z,22.73
2022-08-26T05:28:31.923Z,22.60
2022-08-26T05:30:58.788Z,22.50
2022-08-26T05:33:25.416Z,22.48
2022-08-26T05:35:52.294Z,22.45
2022-08-26T05:38:21.984Z,22.69
2022-08-26T05:40:52.734Z,22.77
2022-08-26T05:43:20.696Z,22.59
2022-08-26T05:45:49.442Z,22.53
2022-08-26T05:48:22.873Z,22.55
2022-08-26T05:50:53.240Z,22.58
2022-08-26T05:53:21.398Z,22.55
2022-08-26T05:55:52.957Z,22.60
2022-08-26T05:58:21.314Z,22.53
2022-08-26T06:01:07.502Z,22.72
2022-08-26T06:03:36.084Z,22.71
2022-08-26T06:06:07.395Z,22.83
2022-08-26T06:08:35.278Z,22.90
2022-08-26T06:11:05.585Z,22.76
2022-08-26T06:13:33.493Z,22.89
2022-08-26T06:16:05.319Z,22.96
2022-08-26T06:18:36.311Z,22.75
2022-08-26T06:21:27.163Z,22.88
2022-08-26T06:24:15.374Z,22.83
2022-08-26T06:26:46.889Z,22.90
2022-08-26T06:29:24.282Z,22.91
2022-08-26T06:31:53.077Z,22.84
2022-08-26T06:34:19.923Z,22.71
2022-08-26T06:36:47.717Z,22.75
2022-08-26T06:39:16.500Z,22.76
2022-08-26T06:41:44.860Z,22.77
2022-08-26T06:44:17.309Z,22.89
2022-08-26T06:46:44.221Z,23.03
2022-08-26T06:49:12.352Z,22.96
2022-08-26T06:51:40.619Z,23.03
2022-08-26T06:54:08.034Z,22.93
2022-08-26T06:56:43.030Z,22.93
2022-08-26T06:59:12.560Z,22.95
2022-08-26T07:01:44.609Z,22.96
2022-08-26T07:04:15.556Z,22.98
2022-08-26T07:06:47.118Z,22.85
2022-08-26T07:09:13.665Z,23.02
2022-08-26T07:11:41.457Z,22.91
2022-08-26T07:14:08.976Z,22.94
2022-08-26T07:16:35.925Z,23.07
2022-08-26T07:19:10.637Z,23.09
2022-08-26T07:21:41.525Z,23.09
2022-08-26T07:24:09.082Z,22.97
2022-08-26T07:26:38.455Z,22.96
2022-08-26T07:29:06.771Z,22.91
2022-08-26T07:31:39.457Z,22.95
2022-08-26T07:34:09.321Z,22.67
2022-08-26T07:36:36.453Z,22.55
2022-08-26T07:39:03.416Z,22.74
2022-08-26T07:44:01.516Z,22.66
2022-08-26T07:46:30.338Z,22.65
2022-08-26T07:48:58.191Z,22.61
2022-08-26T07:51:25.519Z,22.50
2022-08-26T07:53:53.180Z,22.47
2022-08-26T07:56:22.977Z,22.67
2022-08-26T07:58:51.595Z,22.77
2022-08-26T08:01:24.143Z,22.86
2022-08-26T08:03:53.274Z,22.87
2022-08-26T08:06:22.457Z,22.93
2022-08-26T08:08:53.690Z,22.91
2022-08-26T08:11:23.084Z,22.65
2022-08-26T08:13:55.960Z,22.74
2022-08-26T08:16:32.387Z,22.78
2022-08-26T08:19:00.222Z,22.88
2022-08-26T08:21:27.772Z,22.97
2022-08-26T08:23:56.593Z,22.77
2022-08-26T08:26:24.974Z,22.88
2022-08-26T08:28:55.544Z,22.84
2022-08-26T08:31:55.923Z,22.91
2022-08-26T08:34:15.271Z,22.92
2022-08-26T08:36:41.946Z,23.00
2022-08-26T08:39:09.306Z,22.93
2022-08-26T08:42:04.097Z,22.89
2022-08-26T08:44:30.997Z,22.86
2022-08-26T08:47:28.682Z,22.78
2022-08-26T08:50:00.236Z,22.65
2022-08-26T08:52:37.803Z,22.69
2022-08-26T08:55:11.088Z,22.64
2022-08-26T08:57:55.782Z,22.69
2022-08-26T09:00:39.834Z,22.85
2022-08-26T09:03:32.354Z,22.97
2022-08-26T09:06:01.589Z,23.06
2022-08-26T09:08:35.066Z,23.02
2022-08-26T09:11:03.617Z,23.17
2022-08-26T09:13:31.822Z,23.36
2022-08-26T09:16:03.483Z,23.31
2022-08-26T09:18:45.998Z,23.35
2022-08-26T09:21:15.495Z,23.39
2022-08-26T09:23:49.174Z,23.34
2022-08-26T09:26:30.714Z,23.40
2022-08-26T09:29:00.649Z,23.53
2022-08-26T09:31:35.740Z,23.52
2022-08-26T09:34:24.259Z,23.53
2022-08-26T09:36:54.741Z,23.59
2022-08-26T09:39:28.251Z,23.64
2022-08-26T09:42:03.576Z,23.62
2022-08-26T09:44:31.214Z,23.53
2022-08-26T09:47:08.672Z,23.53
2022-08-26T09:49:38.737Z,23.63
2022-08-26T09:52:17.589Z,23.59
2022-08-26T09:54:57.206Z,23.51
2022-08-26T09:57:28.979Z,23.45
2022-08-26T09:59:56.141Z,23.62
2022-08-26T10:02:31.886Z,23.66
2022-08-26T10:04:59.199Z,23.74
2022-08-26T10:07:44.653Z,23.64
2022-08-26T10:10:17.152Z,23.65
2022-08-26T10:13:17.597Z,23.62
2022-08-26T10:15:55.607Z,23.49
2022-08-26T10:18:35.445Z,23.55
2022-08-26T10:21:18.147Z,23.58
2022-08-26T10:23:51.681Z,23.53
2022-08-26T10:26:26.610Z,23.58
2022-08-26T10:29:15.594Z,23.65
2022-08-26T10:31:52.005Z,23.68
2022-08-26T10:34:19.057Z,23.56
2022-08-26T10:37:13.678Z,23.49
2022-08-26T10:40:07.590Z,23.48
2022-08-26T10:42:35.351Z,23.68
2022-08-26T10:45:28.426Z,23.82
2022-08-26T10:48:53.561Z,23.68
2022-08-26T10:51:26.932Z,23.79
2022-08-26T10:54:06.648Z,23.85
2022-08-26T10:56:44.624Z,23.89
2022-08-26T10:59:36.831Z,24.15
2022-08-26T11:02:14.690Z,24.29
2022-08-26T11:04:48.746Z,24.31
2022-08-26T11:07:40.962Z,24.43
2022-08-26T11:10:16.649Z,24.48
2022-08-26T11:12:45.246Z,24.49
2022-08-26T11:15:24.603Z,24.46
2022-08-26T11:17:51.414Z,24.53
2022-08-26T11:20:29.950Z,24.65
2022-08-26T11:23:17.061Z,24.67
2022-08-26T11:25:55.849Z,24.67
2022-08-26T11:28:44.525Z,24.79
2022-08-26T11:31:32.579Z,24.91
2022-08-26T11:34:01.183Z,24.92
2022-08-26T11:36:47.655Z,24.88
2022-08-26T11:39:48.531Z,24.67
2022-08-26T11:42:20.487Z,24.57
2022-08-26T11:44:49.665Z,24.60
2022-08-26T11:47:26.705Z,24.58
2022-08-26T11:50:28.690Z,24.61
2022-08-26T11:53:06.165Z,24.65
2022-08-26T11:55:36.456Z,24.57
2022-08-26T11:58:05.079Z,24.47
2022-08-26T12:00:57.946Z,24.53
2022-08-26T12:03:44.798Z,24.57
2022-08-26T12:09:01.377Z,24.68
2022-08-26T12:11:39.001Z,24.71
2022-08-26T12:14:16.692Z,24.71
2022-08-26T12:16:43.479Z,24.65
2022-08-26T12:19:32.560Z,24.72
2022-08-26T12:22:25.688Z,24.67
2022-08-26T12:25:08.420Z,24.70
2022-08-26T12:27:47.191Z,24.60
2022-08-26T12:30:24.745Z,24.64
2022-08-26T12:33:10.832Z,24.75
2022-08-26T12:35:52.848Z,24.84
2022-08-26T12:38:23.912Z,24.80
2022-08-26T12:40:50.642Z,24.77
2022-08-26T12:43:42.337Z,24.65
2022-08-26T12:46:26.800Z,24.60
2022-08-26T12:48:53.568Z,24.54
2022-08-26T12:51:26.504Z,24.39
2022-08-26T12:53:53.939Z,24.39
2022-08-26T12:56:33.984Z,24.26
2022-08-26T12:59:06.031Z,24.18
2022-08-26T13:01:42.765Z,24.15
2022-08-26T13:04:32.017Z,24.28
2022-08-26T13:07:21.466Z,24.13
2022-08-26T13:09:49.174Z,24.02
2022-08-26T13:12:28.647Z,23.95
2022-08-26T13:14:56.390Z,23.96
2022-08-26T13:17:22.970Z,23.92
2022-08-26T13:19:49.519Z,23.92
2022-08-26T13:22:20.230Z,23.89
2022-08-26T13:24:46.838Z,23.91
2022-08-26T13:27:14.629Z,23.87
2022-08-26T13:29:41.700Z,23.86
2022-08-26T13:32:08.950Z,23.90
2022-08-26T13:34:37.015Z,23.88
2022-08-26T13:37:04.615Z,23.96
2022-08-26T13:39:31.181Z,23.96
2022-08-26T13:41:57.824Z,23.75
2022-08-26T13:44:24.383Z,23.72
2022-08-26T13:46:51.231Z,23.64
2022-08-26T13:49:17.768Z,23.56
2022-08-26T13:51:44.397Z,23.61
2022-08-26T13:54:10.985Z,23.65
2022-08-26T13:56:37.640Z,23.60
2022-08-26T13:59:05.549Z,23.51
2022-08-26T14:01:33.158Z,23.48
2022-08-26T14:03:59.936Z,23.39
2022-08-26T14:06:26.746Z,23.25
2022-08-26T14:08:53.344Z,23.25
2022-08-26T14:11:21.280Z,23.28
2022-08-26T14:13:47.855Z,23.31
2022-08-26T14:16:59.154Z,23.31
2022-08-26T14:19:27.089Z,23.30
2022-08-26T14:21:53.775Z,23.27
2022-08-26T14:24:20.291Z,23.31
2022-08-26T14:26:48.452Z,23.31
2022-08-26T14:29:16.775Z,23.47
2022-08-26T14:31:44.106Z,23.46
2022-08-26T14:34:12.958Z,23.65
2022-08-26T14:36:39.497Z,23.80
2022-08-26T14:39:09.850Z,23.88
2022-08-26T14:41:56.454Z,23.96
2022-08-26T14:44:29.591Z,24.00
2022-08-26T14:46:56.744Z,24.05
2022-08-26T14:49:25.098Z,23.99
2022-08-26T14:51:51.648Z,24.07
2022-08-26T14:54:19.302Z,24.14
2022-08-26T14:56:55.379Z,24.24
2022-08-26T14:59:26.109Z,24.31
2022-08-26T15:01:54.323Z,24.41
2022-08-26T15:04:21.830Z,24.32
2022-08-26T15:06:49.287Z,24.32
2022-08-26T15:09:16.485Z,24.39
2022-08-26T15:11:43.101Z,24.26
2022-08-26T15:14:14.761Z,24.20
2022-08-26T15:16:50.915Z,24.27
2022-08-26T15:19:18.346Z,24.23
2022-08-26T15:21:45.544Z,24.24
2022-08-26T15:24:12.723Z,24.21
2022-08-26T15:26:39.367Z,24.15
2022-08-26T15:31:33.975Z,24.15
2022-08-26T15:34:04.265Z,24.09
2022-08-26T15:36:32.308Z,24.03
2022-08-26T15:39:00.292Z,24.08
2022-08-26T15:41:27.950Z,24.06
2022-08-26T15:43:54.532Z,24.03
2022-08-26T15:46:21.366Z,24.03
2022-08-26T15:48:48.068Z,24.05
2022-08-26T15:51:22.817Z,23.94
2022-08-26T15:53:49.768Z,23.86
2022-08-26T15:56:17.208Z,23.88
2022-08-26T15:58:44.873Z,23.76
2022-08-26T16:01:11.670Z,23.82
2022-08-26T16:03:38.233Z,23.77
2022-08-26T16:06:05.076Z,23.75
2022-08-26T16:08:36.459Z,23.90
2022-08-26T16:11:04.143Z,23.77
2022-08-26T16:13:39.494Z,23.75
2022-08-26T16:16:07.040Z,23.78
2022-08-26T16:18:33.973Z,23.80
2022-08-26T16:21:13.309Z,23.73
2022-08-26T16:23:40.727Z,23.65
2022-08-26T16:26:22.996Z,23.63
2022-08-26T16:28:49.655Z,23.61
2022-08-26T16:31:16.272Z,23.60
2022-08-26T16:33:43.184Z,23.61
2022-08-26T16:36:10.839Z,23.63
2022-08-26T16:38:38.580Z,23.67
2022-08-26T16:41:05.950Z,23.69
2022-08-26T16:43:32.545Z,23.67
2022-08-26T16:45:59.334Z,23.66
2022-08-26T16:48:27.031Z,23.63
2022-08-26T16:50:55.364Z,23.56
2022-08-26T16:53:22.908Z,23.49
2022-08-26T16:55:50.558Z,23.47
2022-08-26T16:58:17.837Z,23.51
2022-08-26T17:00:45.182Z,23.56
2022-08-26T17:03:11.866Z,23.56
2022-08-26T17:05:38.864Z,23.50
2022-08-26T17:08:05.527Z,23.53
2022-08-26T17:10:33.013Z,23.40
2022-08-26T17:12:59.650Z,23.39
2022-08-26T17:15:26.789Z,23.48
2022-08-26T17:17:54.442Z,23.36
2022-08-26T17:20:24.244Z,23.39
2022-08-26T17:22:52.810Z,23.27
2022-08-26T17:25:29.076Z,23.25
2022-08-26T17:30:27.999Z,23.30
2022-08-26T17:32:57.971Z,23.31
2022-08-26T17:35:24.997Z,23.27
2022-08-26T17:37:52.695Z,23.34
2022-08-26T17:40:21.841Z,23.31
2022-08-26T17:42:48.766Z,23.26
2022-08-26T17:45:16.517Z,23.33
2022-08-26T17:47:44.031Z,23.22
2022-08-26T17:50:14.154Z,23.25
2022-08-26T17:52:42.001Z,23.18
2022-08-26T17:55:10.439Z,23.26
2022-08-26T17:57:40.509Z,23.22
2022-08-26T18:00:17.454Z,23.16
2022-08-26T18:02:44.136Z,23.02
2022-08-26T18:05:14.024Z,23.12
2022-08-26T18:07:43.679Z,22.96
2022-08-26T18:10:13.746Z,23.01
2022-08-26T18:12:41.501Z,23.15
2022-08-26T18:15:09.516Z,23.00
2022-08-26T18:17:36.308Z,22.96
2022-08-26T18:20:03.098Z,22.98
2022-08-26T18:22:30.066Z,22.92
2022-08-26T18:24:58.717Z,22.87
2022-08-26T18:27:25.844Z,22.98
2022-08-26T18:29:52.432Z,22.97
2022-08-26T18:32:18.994Z,22.88
2022-08-26T18:34:45.544Z,22.86
2022-08-26T18:37:14.262Z,22.77
2022-08-26T18:39:41.635Z,22.88
2022-08-26T18:42:08.898Z,22.80
2022-08-26T18:44:35.533Z,22.76
2022-08-26T18:47:02.241Z,22.84
2022-08-26T18:49:29.327Z,22.80
2022-08-26T18:51:55.983Z,22.85
2022-08-26T18:54:22.619Z,22.81
2022-08-26T18:56:49.398Z,22.72
2022-08-26T18:59:16.069Z,22.74
2022-08-26T19:01:43.036Z,22.82
2022-08-26T19:04:14.715Z,22.77
2022-08-26T19:06:43.414Z,22.71
2022-08-26T19:09:12.008Z,22.65
2022-08-26T19:11:42.867Z,22.69
2022-08-26T19:14:15.905Z,22.56
2022-08-26T19:16:45.659Z,22.44
2022-08-26T19:19:13.679Z,22.55
2022-08-26T19:21:40.830Z,22.69
2022-08-26T19:24:17.413Z,22.51
2022-08-26T19:26:46.693Z,22.42
2022-08-26T19:29:13.778Z,22.42
2022-08-26T19:31:42.111Z,22.47
2022-08-26T19:34:11.259Z,22.45
2022-08-26T19:36:38.272Z,22.35
2022-08-26T19:39:09.660Z,22.38
2022-08-26T19:41:38.740Z,22.29
2022-08-26T19:44:10.402Z,22.29
2022-08-26T19:49:05.256Z,22.30
2022-08-26T19:51:33.920Z,22.31
2022-08-26T19:54:01.569Z,22.30
2022-08-26T19:56:28.815Z,22.28
2022-08-26T19:58:56.621Z,22.14
2022-08-26T20:01:23.454Z,22.13
2022-08-26T20:03:50.441Z,22.17
2022-08-26T20:06:17.103Z,22.08
2022-08-26T20:08:44.778Z,22.01
2022-08-26T20:11:14.620Z,21.97
2022-08-26T20:13:42.504Z,21.94
2022-08-26T20:16:11.792Z,21.99
2022-08-26T20:19:00.806Z,21.99
2022-08-26T20:21:34.121Z,21.89
2022-08-26T20:24:03.978Z,21.89
2022-08-26T20:26:33.162Z,21.90
2022-08-26T20:28:59.767Z,21.72
2022-08-26T20:31:26.750Z,21.69
2022-08-26T20:33:54.231Z,21.75
2022-08-26T20:36:23.051Z,21.75
2022-08-26T20:38:50.250Z,21.79
2022-08-26T20:41:17.838Z,21.84
2022-08-26T20:43:46.091Z,21.92
2022-08-26T20:46:16.910Z,21.94
2022-08-26T20:48:45.677Z,21.89
2022-08-26T20:51:12.385Z,21.88
2022-08-26T20:53:38.982Z,21.82
2022-08-26T20:56:08.941Z,21.98
2022-08-26T20:58:36.045Z,22.05
2022-08-26T21:01:07.355Z,21.98
2022-08-26T21:03:35.922Z,21.90
2022-08-26T21:06:03.609Z,21.74
2022-08-26T21:08:30.797Z,21.79
2022-08-26T21:11:00.442Z,21.86
2022-08-26T21:13:27.067Z,21.83
2022-08-26T21:15:57.571Z,21.78
2022-08-26T21:18:24.305Z,21.62
2022-08-26T21:20:51.592Z,21.65
2022-08-26T21:23:18.689Z,21.63
2022-08-26T21:25:46.479Z,21.54
2022-08-26T21:28:13.281Z,21.39
2022-08-26T21:30:40.897Z,21.38
2022-08-26T21:33:08.438Z,21.35
2022-08-26T21:35:35.707Z,21.28
2022-08-26T21:38:02.281Z,21.22
2022-08-26T21:40:28.996Z,21.30
2022-08-26T21:42:55.612Z,21.35
2022-08-26T21:45:22.208Z,21.28
2022-08-26T21:47:48.787Z,21.27
2022-08-26T21:50:15.467Z,21.29
2022-08-26T21:52:42.013Z,21.23
2022-08-26T21:55:11.709Z,21.26
2022-08-26T21:57:38.607Z,21.22
2022-08-26T22:00:09.010Z,21.16
2022-08-26T22:02:36.919Z,21.14
2022-08-26T22:05:04.283Z,21.13
2022-08-26T22:07:31.068Z,21.00
2022-08-26T22:09:57.835Z,21.22
2022-08-26T22:12:24.654Z,21.41
2022-08-26T22:14:51.272Z,21.21
2022-08-26T22:17:17.948Z,21.19
2022-08-26T22:19:46.365Z,21.20
2022-08-26T22:22:14.843Z,21.22
2022-08-26T22:24:43.289Z,21.39
2022-08-26T22:27:11.919Z,21.60
2022-08-26T22:29:38.677Z,21.45
2022-08-26T22:32:05.458Z,21.38
2022-08-26T22:34:32.145Z,21.13
2022-08-26T22:36:59.504Z,21.06
2022-08-26T22:39:26.629Z,20.97
2022-08-26T22:41:53.922Z,20.79
2022-08-26T22:44:22.150Z,20.66
2022-08-26T22:46:50.763Z,20.85
2022-08-26T22:49:17.478Z,21.04
2022-08-26T22:51:45.304Z,21.04
2022-08-26T22:54:12.552Z,20.93
2022-08-26T22:56:40.035Z,20.87
2022-08-26T22:59:07.989Z,20.74
2022-08-26T23:01:36.939Z,20.77
2022-08-26T23:04:05.256Z,20.61
2022-08-26T23:06:33.967Z,20.45
2022-08-26T23:09:00.511Z,20.62
2022-08-26T23:11:27.038Z,20.50
2022-08-26T23:13:53.634Z,20.64
2022-08-26T23:16:21.080Z,20.74
2022-08-26T23:18:47.786Z,20.58
2022-08-26T23:21:14.358Z,20.59
2022-08-26T23:23:41.355Z,20.37
2022-08-26T23:26:08.200Z,20.32
2022-08-26T23:28:39.564Z,20.34
2022-08-26T23:31:07.361Z,20.11
2022-08-26T23:33:52.616Z,20.21
2022-08-26T23:36:22.717Z,20.31
2022-08-26T23:38:52.953Z,20.22
2022-08-26T23:41:23.160Z,20.18
2022-08-26T23:43:50.571Z,19.90
2022-08-26T23:46:18.432Z,19.82
2022-08-26T23:48:45.015Z,19.84
2022-08-26T23:51:30.621Z,19.67
2022-08-26T23:53:57.891Z,19.67
2022-08-26T23:56:25.005Z,19.77
2022-08-26T23:58:54.026Z,19.77
